sensor_id;sensor_type;location;lat;lon;timestamp;P1;durP1;ratioP1;P2;durP2;ratioP2
7659;SDS011;3872;47.902;8.162;2022-09-09T00:00:15;5.77;;;1.30;;
7659;SDS011;3872;47.902;8.162;2022-09-09T00:02:44;7.03;;;1.40;;
7659;SDS011;3872;47.902;8.162;2022-09-09T00:05:31;5.70;;;1.27;;
7659;SDS011;3872;47.902;8.162;2022-09-09T00:08:03;4.73;;;1.53;;
7659;SDS011;3872;47.902;8.162;2022-09-09T00:10:34;7.23;;;1.57;;
7659;SDS011;3872;47.902;8.162;2022-09-09T00:13:06;5.60;;;1.60;;
7659;SDS011;3872;47.902;8.162;2022-09-09T00:15:43;5.70;;;1.10;;
7659;SDS011;3872;47.902;8.162;2022-09-09T00:18:17;6.83;;;1.23;;
7659;SDS011;3872;47.902;8.162;2022-09-09T00:20:52;6.70;;;1.70;;
7659;SDS011;3872;47.902;8.162;2022-09-09T00:23:24;11.50;;;1.67;;
7659;SDS011;3872;47.902;8.162;2022-09-09T00:25:56;5.67;;;1.33;;
7659;SDS011;3872;47.902;8.162;2022-09-09T00:28:28;5.60;;;1.20;;
7659;SDS011;3872;47.902;8.162;2022-09-09T00:30:59;6.70;;;1.60;;
7659;SDS011;3872;47.902;8.162;2022-09-09T00:33:28;5.30;;;1.20;;
7659;SDS011;3872;47.902;8.162;2022-09-09T00:35:57;5.30;;;1.77;;
7659;SDS011;3872;47.902;8.162;2022-09-09T00:38:25;5.43;;;1.60;;
7659;SDS011;3872;47.902;8.162;2022-09-09T00:41:00;9.57;;;1.83;;
7659;SDS011;3872;47.902;8.162;2022-09-09T00:43:33;5.37;;;1.10;;
7659;SDS011;3872;47.902;8.162;2022-09-09T00:46:11;7.00;;;1.57;;
7659;SDS011;3872;47.902;8.162;2022-09-09T00:48:52;4.60;;;1.40;;
7659;SDS011;3872;47.902;8.162;2022-09-09T00:51:29;6.83;;;1.60;;
7659;SDS011;3872;47.902;8.162;2022-09-09T00:54:15;3.83;;;1.33;;
7659;SDS011;3872;47.902;8.162;2022-09-09T00:56:56;4.00;;;1.20;;
7659;SDS011;3872;47.902;8.162;2022-09-09T00:59:32;4.30;;;1.10;;
7659;SDS011;3872;47.902;8.162;2022-09-09T01:02:13;3.70;;;1.10;;
7659;SDS011;3872;47.902;8.162;2022-09-09T01:04:47;5.13;;;1.00;;
7659;SDS011;3872;47.902;8.162;2022-09-09T01:07:15;6.90;;;1.67;;
7659;SDS011;3872;47.902;8.162;2022-09-09T01:09:46;4.97;;;1.10;;
7659;SDS011;3872;47.902;8.162;2022-09-09T01:12:25;6.83;;;1.50;;
7659;SDS011;3872;47.902;8.162;2022-09-09T01:15:00;6.00;;;1.43;;
7659;SDS011;3872;47.902;8.162;2022-09-09T01:17:46;4.37;;;1.17;;
7659;SDS011;3872;47.902;8.162;2022-09-09T01:20:20;4.10;;;1.40;;
7659;SDS011;3872;47.902;8.162;2022-09-09T01:22:59;5.00;;;1.33;;
7659;SDS011;3872;47.902;8.162;2022-09-09T01:28:39;6.80;;;1.27;;
7659;SDS011;3872;47.902;8.162;2022-09-09T01:31:11;4.30;;;1.57;;
7659;SDS011;3872;47.902;8.162;2022-09-09T01:33:44;12.17;;;1.50;;
7659;SDS011;3872;47.902;8.162;2022-09-09T01:36:12;4.83;;;1.10;;
7659;SDS011;3872;47.902;8.162;2022-09-09T01:38:48;4.83;;;1.20;;
7659;SDS011;3872;47.902;8.162;2022-09-09T01:41:17;5.03;;;1.27;;
7659;SDS011;3872;47.902;8.162;2022-09-09T01:44:04;3.93;;;1.23;;
7659;SDS011;3872;47.902;8.162;2022-09-09T01:46:33;5.70;;;1.50;;
7659;SDS011;3872;47.902;8.162;2022-09-09T01:49:02;5.00;;;1.43;;
7659;SDS011;3872;47.902;8.162;2022-09-09T01:51:33;6.60;;;1.73;;
7659;SDS011;3872;47.902;8.162;2022-09-09T01:54:03;5.90;;;1.10;;
7659;SDS011;3872;47.902;8.162;2022-09-09T01:56:35;4.13;;;1.23;;
7659;SDS011;3872;47.902;8.162;2022-09-09T02:02:08;8.00;;;1.30;;
7659;SDS011;3872;47.902;8.162;2022-09-09T02:04:43;8.20;;;1.50;;
7659;SDS011;3872;47.902;8.162;2022-09-09T02:07:19;4.80;;;1.77;;
7659;SDS011;3872;47.902;8.162;2022-09-09T02:10:00;5.60;;;1.30;;
7659;SDS011;3872;47.902;8.162;2022-09-09T02:12:35;7.43;;;1.70;;
7659;SDS011;3872;47.902;8.162;2022-09-09T02:15:07;8.43;;;1.50;;
7659;SDS011;3872;47.902;8.162;2022-09-09T02:17:47;4.63;;;1.93;;
7659;SDS011;3872;47.902;8.162;2022-09-09T02:20:18;5.40;;;1.90;;
7659;SDS011;3872;47.902;8.162;2022-09-09T02:22:50;5.03;;;1.90;;
7659;SDS011;3872;47.902;8.162;2022-09-09T02:25:21;6.53;;;2.00;;
7659;SDS011;3872;47.902;8.162;2022-09-09T02:27:56;6.23;;;1.90;;
7659;SDS011;3872;47.902;8.162;2022-09-09T02:30:24;6.73;;;1.63;;
7659;SDS011;3872;47.902;8.162;2022-09-09T02:32:56;5.17;;;1.77;;
7659;SDS011;3872;47.902;8.162;2022-09-09T02:35:41;6.30;;;1.90;;
7659;SDS011;3872;47.902;8.162;2022-09-09T02:38:13;4.00;;;1.43;;
7659;SDS011;3872;47.902;8.162;2022-09-09T02:40:52;8.63;;;1.70;;
7659;SDS011;3872;47.902;8.162;2022-09-09T02:43:20;6.37;;;1.57;;
7659;SDS011;3872;47.902;8.162;2022-09-09T02:45:47;4.60;;;1.37;;
7659;SDS011;3872;47.902;8.162;2022-09-09T02:48:25;4.70;;;1.80;;
7659;SDS011;3872;47.902;8.162;2022-09-09T02:50:57;8.60;;;1.67;;
7659;SDS011;3872;47.902;8.162;2022-09-09T02:53:33;3.90;;;1.20;;
7659;SDS011;3872;47.902;8.162;2022-09-09T02:56:12;7.03;;;1.97;;
7659;SDS011;3872;47.902;8.162;2022-09-09T02:58:46;6.13;;;1.50;;
7659;SDS011;3872;47.902;8.162;2022-09-09T03:01:14;9.50;;;1.60;;
7659;SDS011;3872;47.902;8.162;2022-09-09T03:03:41;6.60;;;1.63;;
7659;SDS011;3872;47.902;8.162;2022-09-09T03:06:12;4.60;;;1.30;;
7659;SDS011;3872;47.902;8.162;2022-09-09T03:08:39;5.33;;;1.53;;
7659;SDS011;3872;47.902;8.162;2022-09-09T03:11:12;5.83;;;1.57;;
7659;SDS011;3872;47.902;8.162;2022-09-09T03:13:41;4.93;;;1.53;;
7659;SDS011;3872;47.902;8.162;2022-09-09T03:16:10;4.87;;;1.53;;
7659;SDS011;3872;47.902;8.162;2022-09-09T03:18:42;5.80;;;1.30;;
7659;SDS011;3872;47.902;8.162;2022-09-09T03:21:11;5.43;;;1.40;;
7659;SDS011;3872;47.902;8.162;2022-09-09T03:23:39;3.80;;;1.40;;
7659;SDS011;3872;47.902;8.162;2022-09-09T03:26:06;4.20;;;1.37;;
7659;SDS011;3872;47.902;8.162;2022-09-09T03:28:39;6.07;;;1.60;;
7659;SDS011;3872;47.902;8.162;2022-09-09T03:31:05;10.50;;;1.50;;
7659;SDS011;3872;47.902;8.162;2022-09-09T03:33:39;5.40;;;1.67;;
7659;SDS011;3872;47.902;8.162;2022-09-09T03:36:09;7.10;;;1.40;;
7659;SDS011;3872;47.902;8.162;2022-09-09T03:38:36;4.20;;;1.50;;
7659;SDS011;3872;47.902;8.162;2022-09-09T03:41:04;6.23;;;1.60;;
7659;SDS011;3872;47.902;8.162;2022-09-09T03:43:33;10.53;;;1.77;;
7659;SDS011;3872;47.902;8.162;2022-09-09T03:45:59;7.50;;;1.27;;
7659;SDS011;3872;47.902;8.162;2022-09-09T03:48:27;6.17;;;1.20;;
7659;SDS011;3872;47.902;8.162;2022-09-09T03:50:56;10.63;;;1.40;;
7659;SDS011;3872;47.902;8.162;2022-09-09T03:53:25;6.90;;;2.70;;
7659;SDS011;3872;47.902;8.162;2022-09-09T03:55:53;4.60;;;1.50;;
7659;SDS011;3872;47.902;8.162;2022-09-09T03:58:23;5.00;;;1.10;;
7659;SDS011;3872;47.902;8.162;2022-09-09T04:00:53;7.10;;;1.50;;
7659;SDS011;3872;47.902;8.162;2022-09-09T04:03:20;7.83;;;1.90;;
7659;SDS011;3872;47.902;8.162;2022-09-09T04:05:49;3.90;;;1.20;;
7659;SDS011;3872;47.902;8.162;2022-09-09T04:08:18;5.13;;;1.20;;
7659;SDS011;3872;47.902;8.162;2022-09-09T04:10:45;4.60;;;1.33;;
7659;SDS011;3872;47.902;8.162;2022-09-09T04:13:12;5.50;;;1.20;;
7659;SDS011;3872;47.902;8.162;2022-09-09T04:15:42;5.20;;;1.23;;
7659;SDS011;3872;47.902;8.162;2022-09-09T04:18:10;6.50;;;1.70;;
7659;SDS011;3872;47.902;8.162;2022-09-09T04:20:37;10.03;;;2.17;;
7659;SDS011;3872;47.902;8.162;2022-09-09T04:23:04;4.57;;;1.33;;
7659;SDS011;3872;47.902;8.162;2022-09-09T04:25:32;6.50;;;1.50;;
7659;SDS011;3872;47.902;8.162;2022-09-09T04:27:59;10.57;;;1.40;;
7659;SDS011;3872;47.902;8.162;2022-09-09T04:30:26;5.90;;;1.70;;
7659;SDS011;3872;47.902;8.162;2022-09-09T04:32:53;6.23;;;1.20;;
7659;SDS011;3872;47.902;8.162;2022-09-09T04:35:20;5.90;;;1.40;;
7659;SDS011;3872;47.902;8.162;2022-09-09T04:37:46;5.20;;;1.67;;
7659;SDS011;3872;47.902;8.162;2022-09-09T04:40:13;12.43;;;1.27;;
7659;SDS011;3872;47.902;8.162;2022-09-09T04:42:42;10.90;;;1.77;;
7659;SDS011;3872;47.902;8.162;2022-09-09T04:45:11;5.10;;;1.20;;
7659;SDS011;3872;47.902;8.162;2022-09-09T04:47:39;4.00;;;1.43;;
7659;SDS011;3872;47.902;8.162;2022-09-09T04:50:06;4.63;;;1.00;;
7659;SDS011;3872;47.902;8.162;2022-09-09T04:52:34;5.80;;;1.30;;
7659;SDS011;3872;47.902;8.162;2022-09-09T04:55:00;5.30;;;1.10;;
7659;SDS011;3872;47.902;8.162;2022-09-09T04:57:27;4.93;;;1.00;;
7659;SDS011;3872;47.902;8.162;2022-09-09T04:59:58;7.30;;;1.40;;
7659;SDS011;3872;47.902;8.162;2022-09-09T05:02:26;4.30;;;0.90;;
7659;SDS011;3872;47.902;8.162;2022-09-09T05:04:52;7.63;;;1.30;;
7659;SDS011;3872;47.902;8.162;2022-09-09T05:07:20;7.63;;;1.43;;
7659;SDS011;3872;47.902;8.162;2022-09-09T05:09:46;9.97;;;1.10;;
7659;SDS011;3872;47.902;8.162;2022-09-09T05:12:15;8.63;;;1.17;;
7659;SDS011;3872;47.902;8.162;2022-09-09T05:14:48;4.50;;;1.30;;
7659;SDS011;3872;47.902;8.162;2022-09-09T05:17:16;7.77;;;0.90;;
7659;SDS011;3872;47.902;8.162;2022-09-09T05:19:43;10.83;;;1.30;;
7659;SDS011;3872;47.902;8.162;2022-09-09T05:22:13;6.70;;;1.07;;
7659;SDS011;3872;47.902;8.162;2022-09-09T05:24:46;5.10;;;1.20;;
7659;SDS011;3872;47.902;8.162;2022-09-09T05:27:15;4.83;;;0.97;;
7659;SDS011;3872;47.902;8.162;2022-09-09T05:29:41;4.87;;;1.03;;
7659;SDS011;3872;47.902;8.162;2022-09-09T05:32:09;6.03;;;1.10;;
7659;SDS011;3872;47.902;8.162;2022-09-09T05:34:37;4.23;;;1.00;;
7659;SDS011;3872;47.902;8.162;2022-09-09T05:37:04;4.60;;;1.20;;
7659;SDS011;3872;47.902;8.162;2022-09-09T05:39:32;7.10;;;1.33;;
7659;SDS011;3872;47.902;8.162;2022-09-09T05:41:59;6.23;;;1.03;;
7659;SDS011;3872;47.902;8.162;2022-09-09T05:44:26;6.57;;;1.17;;
7659;SDS011;3872;47.902;8.162;2022-09-09T05:46:54;6.83;;;1.20;;
7659;SDS011;3872;47.902;8.162;2022-09-09T05:49:21;6.30;;;1.10;;
7659;SDS011;3872;47.902;8.162;2022-09-09T05:51:49;5.60;;;1.10;;
7659;SDS011;3872;47.902;8.162;2022-09-09T05:54:17;7.50;;;1.10;;
7659;SDS011;3872;47.902;8.162;2022-09-09T05:56:47;8.10;;;1.20;;
7659;SDS011;3872;47.902;8.162;2022-09-09T05:59:15;5.20;;;1.20;;
7659;SDS011;3872;47.902;8.162;2022-09-09T06:01:43;6.47;;;1.53;;
7659;SDS011;3872;47.902;8.162;2022-09-09T06:04:18;4.80;;;1.20;;
7659;SDS011;3872;47.902;8.162;2022-09-09T06:06:51;7.30;;;1.07;;
7659;SDS011;3872;47.902;8.162;2022-09-09T06:09:20;4.97;;;1.07;;
7659;SDS011;3872;47.902;8.162;2022-09-09T06:11:46;6.00;;;0.90;;
7659;SDS011;3872;47.902;8.162;2022-09-09T06:14:14;7.90;;;1.23;;
7659;SDS011;3872;47.902;8.162;2022-09-09T06:16:45;4.40;;;1.10;;
7659;SDS011;3872;47.902;8.162;2022-09-09T06:19:17;10.80;;;1.57;;
7659;SDS011;3872;47.902;8.162;2022-09-09T06:21:46;10.37;;;1.20;;
7659;SDS011;3872;47.902;8.162;2022-09-09T06:24:14;6.57;;;1.10;;
7659;SDS011;3872;47.902;8.162;2022-09-09T06:26:43;6.73;;;1.30;;
7659;SDS011;3872;47.902;8.162;2022-09-09T06:29:13;8.50;;;1.27;;
7659;SDS011;3872;47.902;8.162;2022-09-09T06:31:41;7.43;;;1.20;;
7659;SDS011;3872;47.902;8.162;2022-09-09T06:34:14;6.17;;;0.87;;
7659;SDS011;3872;47.902;8.162;2022-09-09T06:36:45;11.50;;;1.00;;
7659;SDS011;3872;47.902;8.162;2022-09-09T06:39:12;5.60;;;1.10;;
7659;SDS011;3872;47.902;8.162;2022-09-09T06:41:42;7.67;;;0.87;;
7659;SDS011;3872;47.902;8.162;2022-09-09T06:44:23;4.57;;;1.10;;
7659;SDS011;3872;47.902;8.162;2022-09-09T06:46:51;7.93;;;1.27;;
7659;SDS011;3872;47.902;8.162;2022-09-09T06:49:18;4.70;;;1.20;;
7659;SDS011;3872;47.902;8.162;2022-09-09T06:51:45;6.23;;;1.03;;
7659;SDS011;3872;47.902;8.162;2022-09-09T06:54:12;6.33;;;0.90;;
7659;SDS011;3872;47.902;8.162;2022-09-09T06:56:44;5.50;;;1.60;;
7659;SDS011;3872;47.902;8.162;2022-09-09T06:59:18;5.50;;;0.80;;
7659;SDS011;3872;47.902;8.162;2022-09-09T07:01:46;4.00;;;1.00;;
7659;SDS011;3872;47.902;8.162;2022-09-09T07:04:14;7.10;;;1.13;;
7659;SDS011;3872;47.902;8.162;2022-09-09T07:06:44;4.73;;;0.93;;
7659;SDS011;3872;47.902;8.162;2022-09-09T07:09:18;5.47;;;0.87;;
7659;SDS011;3872;47.902;8.162;2022-09-09T07:11:49;6.60;;;2.07;;
7659;SDS011;3872;47.902;8.162;2022-09-09T07:14:18;4.70;;;1.57;;
7659;SDS011;3872;47.902;8.162;2022-09-09T07:16:50;4.10;;;1.00;;
7659;SDS011;3872;47.902;8.162;2022-09-09T07:19:17;6.53;;;1.00;;
7659;SDS011;3872;47.902;8.162;2022-09-09T07:21:48;4.00;;;1.00;;
7659;SDS011;3872;47.902;8.162;2022-09-09T07:24:17;4.90;;;1.07;;
7659;SDS011;3872;47.902;8.162;2022-09-09T07:26:45;5.70;;;1.10;;
7659;SDS011;3872;47.902;8.162;2022-09-09T07:29:13;6.43;;;1.00;;
7659;SDS011;3872;47.902;8.162;2022-09-09T07:31:41;3.80;;;0.93;;
7659;SDS011;3872;47.902;8.162;2022-09-09T07:34:12;4.10;;;0.80;;
7659;SDS011;3872;47.902;8.162;2022-09-09T07:36:39;5.60;;;1.17;;
7659;SDS011;3872;47.902;8.162;2022-09-09T07:39:09;7.33;;;0.93;;
7659;SDS011;3872;47.902;8.162;2022-09-09T07:41:41;5.97;;;0.73;;
7659;SDS011;3872;47.902;8.162;2022-09-09T07:44:10;4.77;;;0.80;;
7659;SDS011;3872;47.902;8.162;2022-09-09T07:46:41;4.00;;;0.80;;
7659;SDS011;3872;47.902;8.162;2022-09-09T07:49:09;7.40;;;0.90;;
7659;SDS011;3872;47.902;8.162;2022-09-09T07:51:37;6.07;;;0.80;;
7659;SDS011;3872;47.902;8.162;2022-09-09T07:54:06;4.97;;;1.00;;
7659;SDS011;3872;47.902;8.162;2022-09-09T07:56:36;6.07;;;0.90;;
7659;SDS011;3872;47.902;8.162;2022-09-09T07:59:04;7.00;;;1.00;;
7659;SDS011;3872;47.902;8.162;2022-09-09T08:01:34;4.57;;;0.83;;
7659;SDS011;3872;47.902;8.162;2022-09-09T08:04:06;4.63;;;1.00;;
7659;SDS011;3872;47.902;8.162;2022-09-09T08:06:35;6.93;;;1.10;;
7659;SDS011;3872;47.902;8.162;2022-09-09T08:09:04;7.23;;;1.03;;
7659;SDS011;3872;47.902;8.162;2022-09-09T08:11:32;6.87;;;1.00;;
7659;SDS011;3872;47.902;8.162;2022-09-09T08:14:00;4.70;;;0.90;;
7659;SDS011;3872;47.902;8.162;2022-09-09T08:16:27;4.77;;;0.97;;
7659;SDS011;3872;47.902;8.162;2022-09-09T08:18:57;4.60;;;1.10;;
7659;SDS011;3872;47.902;8.162;2022-09-09T08:21:26;5.83;;;0.90;;
7659;SDS011;3872;47.902;8.162;2022-09-09T08:23:57;5.70;;;1.00;;
7659;SDS011;3872;47.902;8.162;2022-09-09T08:26:25;4.10;;;0.70;;
7659;SDS011;3872;47.902;8.162;2022-09-09T08:28:54;9.00;;;1.20;;
7659;SDS011;3872;47.902;8.162;2022-09-09T08:31:24;8.83;;;1.37;;
7659;SDS011;3872;47.902;8.162;2022-09-09T08:33:53;7.57;;;1.10;;
7659;SDS011;3872;47.902;8.162;2022-09-09T08:36:20;7.33;;;0.83;;
7659;SDS011;3872;47.902;8.162;2022-09-09T08:38:50;6.40;;;0.90;;
7659;SDS011;3872;47.902;8.162;2022-09-09T08:41:28;6.27;;;1.40;;
7659;SDS011;3872;47.902;8.162;2022-09-09T08:44:06;7.20;;;0.90;;
7659;SDS011;3872;47.902;8.162;2022-09-09T08:46:39;8.23;;;1.20;;
7659;SDS011;3872;47.902;8.162;2022-09-09T08:49:19;6.00;;;1.20;;
7659;SDS011;3872;47.902;8.162;2022-09-09T08:52:01;5.00;;;1.13;;
7659;SDS011;3872;47.902;8.162;2022-09-09T08:54:33;6.93;;;1.00;;
7659;SDS011;3872;47.902;8.162;2022-09-09T08:57:01;4.10;;;1.00;;
7659;SDS011;3872;47.902;8.162;2022-09-09T08:59:28;7.40;;;1.27;;
7659;SDS011;3872;47.902;8.162;2022-09-09T09:01:57;5.60;;;0.93;;
7659;SDS011;3872;47.902;8.162;2022-09-09T09:04:43;5.30;;;1.00;;
7659;SDS011;3872;47.902;8.162;2022-09-09T09:07:18;6.70;;;1.00;;
7659;SDS011;3872;47.902;8.162;2022-09-09T09:09:55;3.80;;;0.80;;
7659;SDS011;3872;47.902;8.162;2022-09-09T09:12:35;5.17;;;0.70;;
7659;SDS011;3872;47.902;8.162;2022-09-09T09:15:09;8.47;;;1.10;;
7659;SDS011;3872;47.902;8.162;2022-09-09T09:17:41;5.90;;;1.10;;
7659;SDS011;3872;47.902;8.162;2022-09-09T09:20:11;8.53;;;1.07;;
7659;SDS011;3872;47.902;8.162;2022-09-09T09:22:44;4.50;;;0.90;;
7659;SDS011;3872;47.902;8.162;2022-09-09T09:25:19;3.70;;;0.70;;
7659;SDS011;3872;47.902;8.162;2022-09-09T09:27:49;7.33;;;0.90;;
7659;SDS011;3872;47.902;8.162;2022-09-09T09:30:29;6.63;;;0.80;;
7659;SDS011;3872;47.902;8.162;2022-09-09T09:33:08;6.40;;;1.10;;
7659;SDS011;3872;47.902;8.162;2022-09-09T09:35:41;5.20;;;0.90;;
7659;SDS011;3872;47.902;8.162;2022-09-09T09:38:11;5.33;;;0.87;;
7659;SDS011;3872;47.902;8.162;2022-09-09T09:40:52;4.07;;;0.87;;
7659;SDS011;3872;47.902;8.162;2022-09-09T09:43:24;4.87;;;0.60;;
7659;SDS011;3872;47.902;8.162;2022-09-09T09:45:53;4.97;;;0.67;;
7659;SDS011;3872;47.902;8.162;2022-09-09T09:48:20;5.30;;;0.90;;
7659;SDS011;3872;47.902;8.162;2022-09-09T09:50:49;4.73;;;0.80;;
7659;SDS011;3872;47.902;8.162;2022-09-09T09:53:22;5.17;;;0.70;;
7659;SDS011;3872;47.902;8.162;2022-09-09T09:55:57;6.93;;;0.83;;
7659;SDS011;3872;47.902;8.162;2022-09-09T09:58:29;5.07;;;0.70;;
7659;SDS011;3872;47.902;8.162;2022-09-09T10:00:59;9.77;;;1.03;;
7659;SDS011;3872;47.902;8.162;2022-09-09T10:03:29;4.73;;;0.97;;
7659;SDS011;3872;47.902;8.162;2022-09-09T10:05:58;3.90;;;0.80;;
7659;SDS011;3872;47.902;8.162;2022-09-09T10:08:26;6.77;;;0.90;;
7659;SDS011;3872;47.902;8.162;2022-09-09T10:10:57;4.40;;;0.73;;
7659;SDS011;3872;47.902;8.162;2022-09-09T10:13:35;5.23;;;1.17;;
7659;SDS011;3872;47.902;8.162;2022-09-09T10:16:17;3.97;;;0.60;;
7659;SDS011;3872;47.902;8.162;2022-09-09T10:18:56;4.67;;;0.70;;
7659;SDS011;3872;47.902;8.162;2022-09-09T10:21:29;5.43;;;0.93;;
7659;SDS011;3872;47.902;8.162;2022-09-09T10:24:15;6.83;;;0.90;;
7659;SDS011;3872;47.902;8.162;2022-09-09T10:27:03;9.33;;;0.90;;
7659;SDS011;3872;47.902;8.162;2022-09-09T10:29:45;4.27;;;0.90;;
7659;SDS011;3872;47.902;8.162;2022-09-09T10:32:33;5.03;;;0.70;;
7659;SDS011;3872;47.902;8.162;2022-09-09T10:35:04;5.47;;;1.00;;
7659;SDS011;3872;47.902;8.162;2022-09-09T10:37:42;5.60;;;0.70;;
7659;SDS011;3872;47.902;8.162;2022-09-09T10:40:26;7.10;;;0.87;;
7659;SDS011;3872;47.902;8.162;2022-09-09T10:49:37;4.20;;;0.70;;
7659;SDS011;3872;47.902;8.162;2022-09-09T10:52:21;7.70;;;1.30;;
7659;SDS011;3872;47.902;8.162;2022-09-09T10:54:54;6.03;;;0.80;;
7659;SDS011;3872;47.902;8.162;2022-09-09T10:57:27;5.70;;;0.70;;
7659;SDS011;3872;47.902;8.162;2022-09-09T10:59:59;4.53;;;0.60;;
7659;SDS011;3872;47.902;8.162;2022-09-09T11:02:30;5.60;;;0.70;;
7659;SDS011;3872;47.902;8.162;2022-09-09T11:05:02;6.17;;;0.87;;
7659;SDS011;3872;47.902;8.162;2022-09-09T11:07:33;4.77;;;1.00;;
7659;SDS011;3872;47.902;8.162;2022-09-09T11:10:14;6.13;;;0.90;;
7659;SDS011;3872;47.902;8.162;2022-09-09T11:12:49;5.70;;;1.00;;
7659;SDS011;3872;47.902;8.162;2022-09-09T11:15:20;4.00;;;0.73;;
7659;SDS011;3872;47.902;8.162;2022-09-09T11:17:52;7.90;;;1.00;;
7659;SDS011;3872;47.902;8.162;2022-09-09T11:20:23;6.83;;;1.10;;
7659;SDS011;3872;47.902;8.162;2022-09-09T11:22:53;4.00;;;0.70;;
7659;SDS011;3872;47.902;8.162;2022-09-09T11:25:26;5.90;;;0.87;;
7659;SDS011;3872;47.902;8.162;2022-09-09T11:31:00;5.80;;;0.90;;
7659;SDS011;3872;47.902;8.162;2022-09-09T11:36:51;3.90;;;0.77;;
7659;SDS011;3872;47.902;8.162;2022-09-09T11:42:42;6.53;;;0.90;;
7659;SDS011;3872;47.902;8.162;2022-09-09T11:45:10;6.47;;;0.83;;
7659;SDS011;3872;47.902;8.162;2022-09-09T11:47:51;5.60;;;1.00;;
7659;SDS011;3872;47.902;8.162;2022-09-09T11:50:29;8.27;;;1.40;;
7659;SDS011;3872;47.902;8.162;2022-09-09T11:53:16;7.10;;;0.70;;
7659;SDS011;3872;47.902;8.162;2022-09-09T11:55:47;5.57;;;0.67;;
7659;SDS011;3872;47.902;8.162;2022-09-09T11:58:15;8.30;;;0.80;;
7659;SDS011;3872;47.902;8.162;2022-09-09T12:00:43;4.43;;;0.70;;
7659;SDS011;3872;47.902;8.162;2022-09-09T12:06:11;6.40;;;1.40;;
7659;SDS011;3872;47.902;8.162;2022-09-09T12:08:43;4.83;;;0.70;;
7659;SDS011;3872;47.902;8.162;2022-09-09T12:11:22;6.73;;;0.93;;
7659;SDS011;3872;47.902;8.162;2022-09-09T12:13:52;4.83;;;0.73;;
7659;SDS011;3872;47.902;8.162;2022-09-09T12:16:27;4.30;;;0.70;;
7659;SDS011;3872;47.902;8.162;2022-09-09T12:19:03;4.20;;;0.77;;
7659;SDS011;3872;47.902;8.162;2022-09-09T12:21:33;5.30;;;0.70;;
7659;SDS011;3872;47.902;8.162;2022-09-09T12:24:08;6.23;;;1.00;;
7659;SDS011;3872;47.902;8.162;2022-09-09T12:26:37;6.13;;;1.40;;
7659;SDS011;3872;47.902;8.162;2022-09-09T12:29:12;7.20;;;1.20;;
7659;SDS011;3872;47.902;8.162;2022-09-09T12:31:46;11.27;;;1.00;;
7659;SDS011;3872;47.902;8.162;2022-09-09T12:34:24;6.70;;;1.13;;
7659;SDS011;3872;47.902;8.162;2022-09-09T12:37:00;10.60;;;0.97;;
7659;SDS011;3872;47.902;8.162;2022-09-09T12:39:35;4.80;;;0.80;;
7659;SDS011;3872;47.902;8.162;2022-09-09T12:42:14;5.80;;;1.00;;
7659;SDS011;3872;47.902;8.162;2022-09-09T12:44:50;8.97;;;1.10;;
7659;SDS011;3872;47.902;8.162;2022-09-09T12:47:17;4.50;;;0.80;;
7659;SDS011;3872;47.902;8.162;2022-09-09T12:49:47;6.23;;;0.87;;
7659;SDS011;3872;47.902;8.162;2022-09-09T12:52:17;9.10;;;0.97;;
7659;SDS011;3872;47.902;8.162;2022-09-09T12:54:50;6.27;;;1.10;;
7659;SDS011;3872;47.902;8.162;2022-09-09T12:57:19;5.10;;;0.80;;
7659;SDS011;3872;47.902;8.162;2022-09-09T12:59:48;5.73;;;0.90;;
7659;SDS011;3872;47.902;8.162;2022-09-09T13:02:19;8.57;;;0.90;;
7659;SDS011;3872;47.902;8.162;2022-09-09T13:04:47;5.60;;;0.70;;
7659;SDS011;3872;47.902;8.162;2022-09-09T13:07:16;10.93;;;0.80;;
7659;SDS011;3872;47.902;8.162;2022-09-09T13:09:43;8.00;;;0.90;;
7659;SDS011;3872;47.902;8.162;2022-09-09T13:12:13;4.10;;;0.80;;
7659;SDS011;3872;47.902;8.162;2022-09-09T13:14:42;9.57;;;1.00;;
7659;SDS011;3872;47.902;8.162;2022-09-09T13:17:19;4.10;;;0.67;;
7659;SDS011;3872;47.902;8.162;2022-09-09T13:19:48;5.40;;;0.77;;
7659;SDS011;3872;47.902;8.162;2022-09-09T13:22:20;13.33;;;0.93;;
7659;SDS011;3872;47.902;8.162;2022-09-09T13:24:57;6.03;;;1.13;;
7659;SDS011;3872;47.902;8.162;2022-09-09T13:27:29;3.80;;;0.60;;
7659;SDS011;3872;47.902;8.162;2022-09-09T13:29:58;8.50;;;0.80;;
7659;SDS011;3872;47.902;8.162;2022-09-09T13:32:26;3.77;;;0.60;;
7659;SDS011;3872;47.902;8.162;2022-09-09T13:34:53;4.40;;;0.70;;
7659;SDS011;3872;47.902;8.162;2022-09-09T13:37:23;7.10;;;0.93;;
7659;SDS011;3872;47.902;8.162;2022-09-09T13:39:53;4.40;;;0.70;;
7659;SDS011;3872;47.902;8.162;2022-09-09T13:42:24;14.80;;;0.70;;
7659;SDS011;3872;47.902;8.162;2022-09-09T13:44:54;5.70;;;0.83;;
7659;SDS011;3872;47.902;8.162;2022-09-09T13:47:26;7.20;;;0.90;;
7659;SDS011;3872;47.902;8.162;2022-09-09T13:49:56;7.23;;;1.00;;
7659;SDS011;3872;47.902;8.162;2022-09-09T13:52:22;6.87;;;1.00;;
7659;SDS011;3872;47.902;8.162;2022-09-09T13:54:51;4.00;;;0.73;;
7659;SDS011;3872;47.902;8.162;2022-09-09T13:57:20;5.33;;;0.80;;
7659;SDS011;3872;47.902;8.162;2022-09-09T13:59:48;4.20;;;0.70;;
7659;SDS011;3872;47.902;8.162;2022-09-09T14:02:17;3.70;;;0.60;;
7659;SDS011;3872;47.902;8.162;2022-09-09T14:04:44;4.83;;;0.70;;
7659;SDS011;3872;47.902;8.162;2022-09-09T14:07:12;4.23;;;0.70;;
7659;SDS011;3872;47.902;8.162;2022-09-09T14:09:40;6.73;;;0.60;;
7659;SDS011;3872;47.902;8.162;2022-09-09T14:12:08;5.30;;;0.80;;
7659;SDS011;3872;47.902;8.162;2022-09-09T14:14:35;5.80;;;0.70;;
7659;SDS011;3872;47.902;8.162;2022-09-09T14:17:02;5.63;;;0.80;;
7659;SDS011;3872;47.902;8.162;2022-09-09T14:19:30;3.63;;;0.67;;
7659;SDS011;3872;47.902;8.162;2022-09-09T14:21:57;3.60;;;0.57;;
7659;SDS011;3872;47.902;8.162;2022-09-09T14:24:24;4.90;;;0.80;;
7659;SDS011;3872;47.902;8.162;2022-09-09T14:26:51;4.00;;;0.60;;
7659;SDS011;3872;47.902;8.162;2022-09-09T14:29:17;4.00;;;0.57;;
7659;SDS011;3872;47.902;8.162;2022-09-09T14:31:44;7.10;;;0.70;;
7659;SDS011;3872;47.902;8.162;2022-09-09T14:34:11;6.90;;;0.60;;
7659;SDS011;3872;47.902;8.162;2022-09-09T14:36:39;3.67;;;0.60;;
7659;SDS011;3872;47.902;8.162;2022-09-09T14:39:06;4.83;;;0.60;;
7659;SDS011;3872;47.902;8.162;2022-09-09T14:41:33;3.80;;;0.70;;
7659;SDS011;3872;47.902;8.162;2022-09-09T14:43:59;4.10;;;0.70;;
7659;SDS011;3872;47.902;8.162;2022-09-09T14:46:26;4.33;;;0.50;;
7659;SDS011;3872;47.902;8.162;2022-09-09T14:48:53;3.60;;;0.57;;
7659;SDS011;3872;47.902;8.162;2022-09-09T14:51:20;6.53;;;0.77;;
7659;SDS011;3872;47.902;8.162;2022-09-09T14:53:52;4.20;;;0.60;;
7659;SDS011;3872;47.902;8.162;2022-09-09T14:56:21;3.90;;;0.80;;
7659;SDS011;3872;47.902;8.162;2022-09-09T14:58:49;4.00;;;0.60;;
7659;SDS011;3872;47.902;8.162;2022-09-09T15:01:17;4.37;;;0.70;;
7659;SDS011;3872;47.902;8.162;2022-09-09T15:03:48;5.50;;;0.70;;
7659;SDS011;3872;47.902;8.162;2022-09-09T15:06:16;4.00;;;0.80;;
7659;SDS011;3872;47.902;8.162;2022-09-09T15:08:43;4.03;;;0.63;;
7659;SDS011;3872;47.902;8.162;2022-09-09T15:11:13;4.00;;;0.70;;
7659;SDS011;3872;47.902;8.162;2022-09-09T15:13:41;4.73;;;0.73;;
7659;SDS011;3872;47.902;8.162;2022-09-09T15:16:10;3.90;;;0.67;;
7659;SDS011;3872;47.902;8.162;2022-09-09T15:18:37;5.20;;;0.57;;
7659;SDS011;3872;47.902;8.162;2022-09-09T15:21:08;3.80;;;0.50;;
7659;SDS011;3872;47.902;8.162;2022-09-09T15:23:35;5.63;;;0.80;;
7659;SDS011;3872;47.902;8.162;2022-09-09T15:26:02;5.30;;;0.70;;
7659;SDS011;3872;47.902;8.162;2022-09-09T15:28:32;5.60;;;0.80;;
7659;SDS011;3872;47.902;8.162;2022-09-09T15:31:04;5.03;;;0.60;;
7659;SDS011;3872;47.902;8.162;2022-09-09T15:33:33;5.00;;;0.83;;
7659;SDS011;3872;47.902;8.162;2022-09-09T15:36:12;5.20;;;0.83;;
7659;SDS011;3872;47.902;8.162;2022-09-09T15:38:39;4.70;;;1.00;;
7659;SDS011;3872;47.902;8.162;2022-09-09T15:41:07;4.63;;;0.70;;
7659;SDS011;3872;47.902;8.162;2022-09-09T15:43:36;5.50;;;0.80;;
7659;SDS011;3872;47.902;8.162;2022-09-09T15:46:06;4.13;;;0.73;;
7659;SDS011;3872;47.902;8.162;2022-09-09T15:48:51;4.73;;;0.70;;
7659;SDS011;3872;47.902;8.162;2022-09-09T15:51:18;4.43;;;0.70;;
7659;SDS011;3872;47.902;8.162;2022-09-09T15:53:46;6.63;;;1.00;;
7659;SDS011;3872;47.902;8.162;2022-09-09T15:56:12;4.40;;;0.80;;
7659;SDS011;3872;47.902;8.162;2022-09-09T15:58:48;4.87;;;0.70;;
7659;SDS011;3872;47.902;8.162;2022-09-09T16:01:14;7.87;;;0.70;;
7659;SDS011;3872;47.902;8.162;2022-09-09T16:03:41;4.33;;;0.70;;